sensor_id;sensor_type;location;lat;lon;timestamp;temperature;humidity
4050;DHT22;2039;50.894;6.888;2023-04-24T00:01:31;12.40;99.60
4050;DHT22;2039;50.894;6.888;2023-04-24T00:03:57;12.40;99.90
4050;DHT22;2039;50.894;6.888;2023-04-24T00:06:25;12.40;99.90
4050;DHT22;2039;50.894;6.888;2023-04-24T00:09:02;12.50;99.90
4050;DHT22;2039;50.894;6.888;2023-04-24T00:11:29;12.40;99.90
4050;DHT22;2039;50.894;6.888;2023-04-24T00:13:56;12.40;99.90
4050;DHT22;2039;50.894;6.888;2023-04-24T00:16:22;12.50;99.90
4050;DHT22;2039;50.894;6.888;2023-04-24T00:18:48;12.50;99.90
4050;DHT22;2039;50.894;6.888;2023-04-24T00:21:14;12.40;99.90
4050;DHT22;2039;50.894;6.888;2023-04-24T00:23:43;12.40;99.70
4050;DHT22;2039;50.894;6.888;2023-04-24T00:26:09;12.40;99.90
4050;DHT22;2039;50.894;6.888;2023-04-24T00:28:35;12.40;99.90
4050;DHT22;2039;50.894;6.888;2023-04-24T00:31:01;12.30;99.90
4050;DHT22;2039;50.894;6.888;2023-04-24T00:33:26;12.40;99.90
4050;DHT22;2039;50.894;6.888;2023-04-24T00:35:52;12.40;99.50
4050;DHT22;2039;50.894;6.888;2023-04-24T00:38:18;12.40;96.80
4050;DHT22;2039;50.894;6.888;2023-04-24T00:40:44;12.40;86.30
4050;DHT22;2039;50.894;6.888;2023-04-24T00:43:10;12.40;84.30
4050;DHT22;2039;50.894;6.888;2023-04-24T00:45:35;12.40;82.30
4050;DHT22;2039;50.894;6.888;2023-04-24T00:48:02;12.50;77.70
4050;DHT22;2039;50.894;6.888;2023-04-24T00:50:28;12.50;75.30
4050;DHT22;2039;50.894;6.888;2023-04-24T00:52:54;12.60;72.20
4050;DHT22;2039;50.894;6.888;2023-04-24T00:55:20;12.50;70.30
4050;DHT22;2039;50.894;6.888;2023-04-24T00:57:47;12.50;63.30
4050;DHT22;2039;50.894;6.888;2023-04-24T01:00:15;12.40;61.90
4050;DHT22;2039;50.894;6.888;2023-04-24T01:02:43;12.40;64.40
4050;DHT22;2039;50.894;6.888;2023-04-24T01:05:11;12.40;53.10
4050;DHT22;2039;50.894;6.888;2023-04-24T01:07:39;12.40;56.80
4050;DHT22;2039;50.894;6.888;2023-04-24T01:10:07;12.40;54.30
4050;DHT22;2039;50.894;6.888;2023-04-24T01:12:34;12.30;50.30
4050;DHT22;2039;50.894;6.888;2023-04-24T01:15:00;12.30;42.50
4050;DHT22;2039;50.894;6.888;2023-04-24T01:17:26;12.30;41.30
4050;DHT22;2039;50.894;6.888;2023-04-24T01:19:52;12.20;40.40
4050;DHT22;2039;50.894;6.888;2023-04-24T01:22:22;12.20;42.80
4050;DHT22;2039;50.894;6.888;2023-04-24T01:24:48;12.10;41.80
4050;DHT22;2039;50.894;6.888;2023-04-24T01:27:14;12.10;36.90
4050;DHT22;2039;50.894;6.888;2023-04-24T01:29:40;12.10;39.00
4050;DHT22;2039;50.894;6.888;2023-04-24T01:32:06;12.10;31.90
4050;DHT22;2039;50.894;6.888;2023-04-24T01:34:33;12.10;36.40
4050;DHT22;2039;50.894;6.888;2023-04-24T01:36:58;12.10;38.40
4050;DHT22;2039;50.894;6.888;2023-04-24T01:39:24;12.10;41.70
4050;DHT22;2039;50.894;6.888;2023-04-24T01:41:51;12.00;37.60
4050;DHT22;2039;50.894;6.888;2023-04-24T01:44:18;12.00;39.40
4050;DHT22;2039;50.894;6.888;2023-04-24T01:46:44;12.00;34.80
4050;DHT22;2039;50.894;6.888;2023-04-24T01:49:10;11.90;31.70
4050;DHT22;2039;50.894;6.888;2023-04-24T01:51:36;11.90;32.90
4050;DHT22;2039;50.894;6.888;2023-04-24T01:54:02;11.80;38.20
4050;DHT22;2039;50.894;6.888;2023-04-24T01:56:29;11.70;33.20
4050;DHT22;2039;50.894;6.888;2023-04-24T01:58:56;11.70;35.70
4050;DHT22;2039;50.894;6.888;2023-04-24T02:01:24;11.80;36.60
4050;DHT22;2039;50.894;6.888;2023-04-24T02:03:50;11.70;34.80
4050;DHT22;2039;50.894;6.888;2023-04-24T02:06:16;11.60;36.10
4050;DHT22;2039;50.894;6.888;2023-04-24T02:08:42;11.50;39.10
4050;DHT22;2039;50.894;6.888;2023-04-24T02:11:11;11.40;42.80
4050;DHT22;2039;50.894;6.888;2023-04-24T02:13:36;11.40;43.20
4050;DHT22;2039;50.894;6.888;2023-04-24T02:16:02;11.40;41.40
4050;DHT22;2039;50.894;6.888;2023-04-24T02:18:28;11.30;41.80
4050;DHT22;2039;50.894;6.888;2023-04-24T02:20:53;11.20;43.20
4050;DHT22;2039;50.894;6.888;2023-04-24T02:23:19;11.10;48.50
4050;DHT22;2039;50.894;6.888;2023-04-24T02:25:45;11.00;51.70
4050;DHT22;2039;50.894;6.888;2023-04-24T02:28:14;11.00;52.40
4050;DHT22;2039;50.894;6.888;2023-04-24T02:30:39;11.00;54.30
4050;DHT22;2039;50.894;6.888;2023-04-24T02:33:05;11.00;55.00
4050;DHT22;2039;50.894;6.888;2023-04-24T02:35:31;11.00;55.00
4050;DHT22;2039;50.894;6.888;2023-04-24T02:37:57;11.00;60.00
4050;DHT22;2039;50.894;6.888;2023-04-24T02:40:22;11.00;61.30
4050;DHT22;2039;50.894;6.888;2023-04-24T02:42:51;10.90;67.40
4050;DHT22;2039;50.894;6.888;2023-04-24T02:45:16;10.90;68.50
4050;DHT22;2039;50.894;6.888;2023-04-24T02:47:42;10.80;67.80
4050;DHT22;2039;50.894;6.888;2023-04-24T02:50:08;10.80;70.50
4050;DHT22;2039;50.894;6.888;2023-04-24T02:52:34;10.80;67.10
4050;DHT22;2039;50.894;6.888;2023-04-24T02:54:59;10.80;67.50
4050;DHT22;2039;50.894;6.888;2023-04-24T02:57:25;10.80;68.60
4050;DHT22;2039;50.894;6.888;2023-04-24T02:59:50;10.80;71.40
4050;DHT22;2039;50.894;6.888;2023-04-24T03:02:16;10.80;69.90
4050;DHT22;2039;50.894;6.888;2023-04-24T03:04:42;10.80;67.40
4050;DHT22;2039;50.894;6.888;2023-04-24T03:07:08;10.90;65.90
4050;DHT22;2039;50.894;6.888;2023-04-24T03:09:34;10.90;68.30
4050;DHT22;2039;50.894;6.888;2023-04-24T03:12:02;10.90;68.70
4050;DHT22;2039;50.894;6.888;2023-04-24T03:14:27;10.90;65.20
4050;DHT22;2039;50.894;6.888;2023-04-24T03:16:56;11.00;70.30
4050;DHT22;2039;50.894;6.888;2023-04-24T03:19:22;10.90;63.70
4050;DHT22;2039;50.894;6.888;2023-04-24T03:21:48;10.90;66.20
4050;DHT22;2039;50.894;6.888;2023-04-24T03:24:14;10.80;65.70
4050;DHT22;2039;50.894;6.888;2023-04-24T03:26:39;10.90;67.00
4050;DHT22;2039;50.894;6.888;2023-04-24T03:29:05;10.80;61.80
4050;DHT22;2039;50.894;6.888;2023-04-24T03:31:33;10.60;70.40
4050;DHT22;2039;50.894;6.888;2023-04-24T03:33:59;10.60;65.50
4050;DHT22;2039;50.894;6.888;2023-04-24T03:36:25;10.50;64.80
4050;DHT22;2039;50.894;6.888;2023-04-24T03:38:51;10.60;59.50
4050;DHT22;2039;50.894;6.888;2023-04-24T03:41:17;10.40;68.30
4050;DHT22;2039;50.894;6.888;2023-04-24T03:43:42;10.40;66.60
4050;DHT22;2039;50.894;6.888;2023-04-24T03:46:08;10.50;65.40
4050;DHT22;2039;50.894;6.888;2023-04-24T03:48:35;10.40;66.00
4050;DHT22;2039;50.894;6.888;2023-04-24T03:51:00;10.40;66.70
4050;DHT22;2039;50.894;6.888;2023-04-24T03:53:29;10.30;71.30
4050;DHT22;2039;50.894;6.888;2023-04-24T03:55:55;10.30;67.50
4050;DHT22;2039;50.894;6.888;2023-04-24T03:58:21;10.30;73.90
4050;DHT22;2039;50.894;6.888;2023-04-24T04:00:51;10.30;68.90
4050;DHT22;2039;50.894;6.888;2023-04-24T04:03:17;10.40;69.90
4050;DHT22;2039;50.894;6.888;2023-04-24T04:05:43;10.30;70.60
4050;DHT22;2039;50.894;6.888;2023-04-24T04:08:08;10.20;71.30
4050;DHT22;2039;50.894;6.888;2023-04-24T04:10:34;10.20;77.20
4050;DHT22;2039;50.894;6.888;2023-04-24T04:13:00;10.10;78.70
4050;DHT22;2039;50.894;6.888;2023-04-24T04:15:26;10.20;80.50
4050;DHT22;2039;50.894;6.888;2023-04-24T04:17:52;10.20;75.80
4050;DHT22;2039;50.894;6.888;2023-04-24T04:20:20;10.20;78.10
4050;DHT22;2039;50.894;6.888;2023-04-24T04:22:46;10.20;78.70
4050;DHT22;2039;50.894;6.888;2023-04-24T04:25:11;10.30;81.40
4050;DHT22;2039;50.894;6.888;2023-04-24T04:27:39;10.30;81.10
4050;DHT22;2039;50.894;6.888;2023-04-24T04:30:07;10.40;80.80
4050;DHT22;2039;50.894;6.888;2023-04-24T04:32:36;10.40;77.50
4050;DHT22;2039;50.894;6.888;2023-04-24T04:35:03;10.30;78.50
4050;DHT22;2039;50.894;6.888;2023-04-24T04:37:32;10.30;78.10
4050;DHT22;2039;50.894;6.888;2023-04-24T04:39:59;10.40;80.30
4050;DHT22;2039;50.894;6.888;2023-04-24T04:42:25;10.40;77.20
4050;DHT22;2039;50.894;6.888;2023-04-24T04:44:52;10.40;79.80
4050;DHT22;2039;50.894;6.888;2023-04-24T04:47:20;10.40;81.50
4050;DHT22;2039;50.894;6.888;2023-04-24T04:49:48;10.40;84.00
4050;DHT22;2039;50.894;6.888;2023-04-24T04:52:14;10.40;83.80
4050;DHT22;2039;50.894;6.888;2023-04-24T04:54:40;10.40;76.30
4050;DHT22;2039;50.894;6.888;2023-04-24T04:57:06;10.40;83.30
4050;DHT22;2039;50.894;6.888;2023-04-24T04:59:31;10.50;87.20
4050;DHT22;2039;50.894;6.888;2023-04-24T05:02:00;10.60;82.00
4050;DHT22;2039;50.894;6.888;2023-04-24T05:04:26;10.40;80.10
4050;DHT22;2039;50.894;6.888;2023-04-24T05:06:52;10.40;84.70
4050;DHT22;2039;50.894;6.888;2023-04-24T05:09:18;10.50;80.40
4050;DHT22;2039;50.894;6.888;2023-04-24T05:11:44;10.50;79.60
4050;DHT22;2039;50.894;6.888;2023-04-24T05:14:10;10.50;83.30
4050;DHT22;2039;50.894;6.888;2023-04-24T05:16:38;10.40;83.40
4050;DHT22;2039;50.894;6.888;2023-04-24T05:19:04;10.50;88.00
4050;DHT22;2039;50.894;6.888;2023-04-24T05:21:30;10.50;87.00
4050;DHT22;2039;50.894;6.888;2023-04-24T05:23:56;10.50;84.50
4050;DHT22;2039;50.894;6.888;2023-04-24T05:26:22;10.50;87.20
4050;DHT22;2039;50.894;6.888;2023-04-24T05:28:48;10.60;90.20
4050;DHT22;2039;50.894;6.888;2023-04-24T05:31:14;10.50;85.60
4050;DHT22;2039;50.894;6.888;2023-04-24T05:33:39;10.50;91.90
4050;DHT22;2039;50.894;6.888;2023-04-24T05:36:06;10.50;92.30
4050;DHT22;2039;50.894;6.888;2023-04-24T05:38:35;10.60;90.00
4050;DHT22;2039;50.894;6.888;2023-04-24T05:41:01;10.60;89.70
4050;DHT22;2039;50.894;6.888;2023-04-24T05:43:27;10.60;89.50
4050;DHT22;2039;50.894;6.888;2023-04-24T05:45:53;10.60;89.40
4050;DHT22;2039;50.894;6.888;2023-04-24T05:48:19;10.60;92.00
4050;DHT22;2039;50.894;6.888;2023-04-24T05:50:45;10.60;93.70
4050;DHT22;2039;50.894;6.888;2023-04-24T05:53:12;10.50;91.70
4050;DHT22;2039;50.894;6.888;2023-04-24T05:55:41;10.50;91.60
4050;DHT22;2039;50.894;6.888;2023-04-24T05:58:07;10.50;91.20
4050;DHT22;2039;50.894;6.888;2023-04-24T06:00:32;10.50;93.10
4050;DHT22;2039;50.894;6.888;2023-04-24T06:03:00;10.50;94.60
4050;DHT22;2039;50.894;6.888;2023-04-24T06:05:26;10.60;95.30
4050;DHT22;2039;50.894;6.888;2023-04-24T06:07:52;10.60;96.90
4050;DHT22;2039;50.894;6.888;2023-04-24T06:10:17;10.60;97.70
4050;DHT22;2039;50.894;6.888;2023-04-24T06:12:43;10.70;98.80
4050;DHT22;2039;50.894;6.888;2023-04-24T06:15:09;10.70;92.50
4050;DHT22;2039;50.894;6.888;2023-04-24T06:17:36;10.70;93.50
4050;DHT22;2039;50.894;6.888;2023-04-24T06:20:02;10.60;94.00
4050;DHT22;2039;50.894;6.888;2023-04-24T06:22:30;10.60;95.60
4050;DHT22;2039;50.894;6.888;2023-04-24T06:24:56;10.60;99.90
4050;DHT22;2039;50.894;6.888;2023-04-24T06:27:22;10.50;99.90
4050;DHT22;2039;50.894;6.888;2023-04-24T06:29:47;10.50;99.90
4050;DHT22;2039;50.894;6.888;2023-04-24T06:32:22;10.50;99.90
4050;DHT22;2039;50.894;6.888;2023-04-24T06:34:48;10.50;99.10
4050;DHT22;2039;50.894;6.888;2023-04-24T06:37:14;10.60;99.90
4050;DHT22;2039;50.894;6.888;2023-04-24T06:39:40;10.50;99.90
4050;DHT22;2039;50.894;6.888;2023-04-24T06:42:06;10.30;99.90
4050;DHT22;2039;50.894;6.888;2023-04-24T06:44:42;10.30;99.90
4050;DHT22;2039;50.894;6.888;2023-04-24T06:47:22;10.20;99.90
4050;DHT22;2039;50.894;6.888;2023-04-24T06:50:02;10.30;99.90
4050;DHT22;2039;50.894;6.888;2023-04-24T06:59:45;10.10;99.90
4050;DHT22;2039;50.894;6.888;2023-04-24T07:05:46;10.00;99.90
4050;DHT22;2039;50.894;6.888;2023-04-24T07:09:16;10.00;99.90
4050;DHT22;2039;50.894;6.888;2023-04-24T07:15:11;10.10;99.90
4050;DHT22;2039;50.894;6.888;2023-04-24T07:21:00;10.00;99.90
4050;DHT22;2039;50.894;6.888;2023-04-24T07:23:34;10.20;99.90
4050;DHT22;2039;50.894;6.888;2023-04-24T07:26:22;10.10;99.90
4050;DHT22;2039;50.894;6.888;2023-04-24T07:28:56;10.10;99.90
4050;DHT22;2039;50.894;6.888;2023-04-24T07:31:35;10.10;99.90
4050;DHT22;2039;50.894;6.888;2023-04-24T07:34:16;10.10;99.90
4050;DHT22;2039;50.894;6.888;2023-04-24T07:36:44;10.00;99.90
4050;DHT22;2039;50.894;6.888;2023-04-24T07:39:11;10.10;99.90
4050;DHT22;2039;50.894;6.888;2023-04-24T07:41:46;10.10;99.90
4050;DHT22;2039;50.894;6.888;2023-04-24T07:44:14;10.00;99.90
4050;DHT22;2039;50.894;6.888;2023-04-24T07:46:47;9.70;99.90
4050;DHT22;2039;50.894;6.888;2023-04-24T07:49:32;9.60;99.90
4050;DHT22;2039;50.894;6.888;2023-04-24T07:52:02;9.60;99.90
4050;DHT22;2039;50.894;6.888;2023-04-24T07:54:29;9.50;99.90
4050;DHT22;2039;50.894;6.888;2023-04-24T07:56:55;9.50;99.90
4050;DHT22;2039;50.894;6.888;2023-04-24T07:59:23;9.30;99.90
4050;DHT22;2039;50.894;6.888;2023-04-24T08:02:15;9.20;99.90
4050;DHT22;2039;50.894;6.888;2023-04-24T08:04:46;9.10;99.90
4050;DHT22;2039;50.894;6.888;2023-04-24T08:07:20;9.10;99.90
4050;DHT22;2039;50.894;6.888;2023-04-24T08:16:14;8.90;99.90
4050;DHT22;2039;50.894;6.888;2023-04-24T09:47:30;9.10;99.90
4050;DHT22;2039;50.894;6.888;2023-04-24T09:56:51;9.40;99.90
4050;DHT22;2039;50.894;6.888;2023-04-24T10:03:35;9.70;99.90
4050;DHT22;2039;50.894;6.888;2023-04-24T10:06:13;9.80;99.90
4050;DHT22;2039;50.894;6.888;2023-04-24T10:12:49;10.00;99.90
4050;DHT22;2039;50.894;6.888;2023-04-24T10:15:38;10.10;99.90
4050;DHT22;2039;50.894;6.888;2023-04-24T10:18:08;10.20;99.90
4050;DHT22;2039;50.894;6.888;2023-04-24T10:20:56;10.20;99.90
4050;DHT22;2039;50.894;6.888;2023-04-24T10:23:58;10.30;99.90
4050;DHT22;2039;50.894;6.888;2023-04-24T10:26:31;10.40;99.90
4050;DHT22;2039;50.894;6.888;2023-04-24T10:29:05;10.50;99.90
4050;DHT22;2039;50.894;6.888;2023-04-24T10:31:36;10.50;99.90
4050;DHT22;2039;50.894;6.888;2023-04-24T10:34:09;10.60;99.90
4050;DHT22;2039;50.894;6.888;2023-04-24T10:37:04;10.60;99.90
4050;DHT22;2039;50.894;6.888;2023-04-24T10:39:39;10.60;99.90
4050;DHT22;2039;50.894;6.888;2023-04-24T10:42:19;10.70;99.90
4050;DHT22;2039;50.894;6.888;2023-04-24T10:45:12;10.70;99.90
4050;DHT22;2039;50.894;6.888;2023-04-24T10:47:57;10.80;99.90
4050;DHT22;2039;50.894;6.888;2023-04-24T10:50:47;10.90;99.90
4050;DHT22;2039;50.894;6.888;2023-04-24T10:53:18;11.00;99.90
4050;DHT22;2039;50.894;6.888;2023-04-24T10:55:51;11.10;99.90
4050;DHT22;2039;50.894;6.888;2023-04-24T10:58:42;11.00;99.90
4050;DHT22;2039;50.894;6.888;2023-04-24T11:01:27;11.10;99.90
4050;DHT22;2039;50.894;6.888;2023-04-24T11:04:02;11.10;99.90
4050;DHT22;2039;50.894;6.888;2023-04-24T11:06:33;11.10;99.90
4050;DHT22;2039;50.894;6.888;2023-04-24T11:09:10;11.10;99.90
4050;DHT22;2039;50.894;6.888;2023-04-24T11:15:16;10.90;99.90
4050;DHT22;2039;50.894;6.888;2023-04-24T11:18:13;10.90;99.90
4050;DHT22;2039;50.894;6.888;2023-04-24T11:21:09;10.90;99.90
4050;DHT22;2039;50.894;6.888;2023-04-24T11:30:43;10.90;99.90
4050;DHT22;2039;50.894;6.888;2023-04-24T11:33:51;10.90;99.90
4050;DHT22;2039;50.894;6.888;2023-04-24T11:37:18;10.90;99.90
4050;DHT22;2039;50.894;6.888;2023-04-24T11:40:23;11.00;99.90
4050;DHT22;2039;50.894;6.888;2023-04-24T11:42:53;11.10;99.90
4050;DHT22;2039;50.894;6.888;2023-04-24T11:45:24;11.20;99.90
4050;DHT22;2039;50.894;6.888;2023-04-24T11:47:51;11.20;99.90
4050;DHT22;2039;50.894;6.888;2023-04-24T11:50:23;11.30;99.90
4050;DHT22;2039;50.894;6.888;2023-04-24T11:52:49;11.40;99.90
4050;DHT22;2039;50.894;6.888;2023-04-24T11:57:46;11.40;99.90
4050;DHT22;2039;50.894;6.888;2023-04-24T12:00:19;11.60;99.90
4050;DHT22;2039;50.894;6.888;2023-04-24T12:02:46;12.00;99.90
4050;DHT22;2039;50.894;6.888;2023-04-24T12:05:22;12.30;99.90
4050;DHT22;2039;50.894;6.888;2023-04-24T12:07:48;12.70;99.90
4050;DHT22;2039;50.894;6.888;2023-04-24T12:10:14;12.90;99.90
4050;DHT22;2039;50.894;6.888;2023-04-24T12:12:40;13.00;99.90
4050;DHT22;2039;50.894;6.888;2023-04-24T12:15:07;12.90;99.90
4050;DHT22;2039;50.894;6.888;2023-04-24T12:17:34;12.70;99.90
4050;DHT22;2039;50.894;6.888;2023-04-24T12:20:05;12.60;99.90
4050;DHT22;2039;50.894;6.888;2023-04-24T12:22:47;12.50;99.90
4050;DHT22;2039;50.894;6.888;2023-04-24T12:25:18;12.30;99.90
4050;DHT22;2039;50.894;6.888;2023-04-24T12:27:45;12.30;99.90
4050;DHT22;2039;50.894;6.888;2023-04-24T12:30:20;12.30;99.90
4050;DHT22;2039;50.894;6.888;2023-04-24T12:32:48;12.30;99.90
4050;DHT22;2039;50.894;6.888;2023-04-24T12:38:44;12.40;99.90
4050;DHT22;2039;50.894;6.888;2023-04-24T12:41:14;12.70;99.90
4050;DHT22;2039;50.894;6.888;2023-04-24T12:43:51;13.00;99.90
4050;DHT22;2039;50.894;6.888;2023-04-24T12:46:17;13.30;99.90
4050;DHT22;2039;50.894;6.888;2023-04-24T12:48:43;13.60;99.90
4050;DHT22;2039;50.894;6.888;2023-04-24T12:51:09;13.90;99.90
4050;DHT22;2039;50.894;6.888;2023-04-24T12:53:34;14.20;97.30
4050;DHT22;2039;50.894;6.888;2023-04-24T12:56:00;14.40;88.00
4050;DHT22;2039;50.894;6.888;2023-04-24T12:58:26;14.60;90.00
4050;DHT22;2039;50.894;6.888;2023-04-24T13:00:52;14.70;58.10
4050;DHT22;2039;50.894;6.888;2023-04-24T13:03:18;14.60;50.00
4050;DHT22;2039;50.894;6.888;2023-04-24T13:05:44;14.40;29.50
4050;DHT22;2039;50.894;6.888;2023-04-24T13:08:09;14.50;58.10
4050;DHT22;2039;50.894;6.888;2023-04-24T13:10:35;14.40;32.60
4050;DHT22;2039;50.894;6.888;2023-04-24T13:13:22;14.30;34.60
4050;DHT22;2039;50.894;6.888;2023-04-24T13:19:38;14.20;30.00
4050;DHT22;2039;50.894;6.888;2023-04-24T13:22:04;14.30;17.60
4050;DHT22;2039;50.894;6.888;2023-04-24T13:24:31;14.30;27.90
4050;DHT22;2039;50.894;6.888;2023-04-24T13:26:57;14.40;37.40
4050;DHT22;2039;50.894;6.888;2023-04-24T13:29:23;14.50;21.00
4050;DHT22;2039;50.894;6.888;2023-04-24T13:31:53;14.60;26.30
4050;DHT22;2039;50.894;6.888;2023-04-24T13:34:24;14.60;5.00
4050;DHT22;2039;50.894;6.888;2023-04-24T13:36:54;14.40;8.00
4050;DHT22;2039;50.894;6.888;2023-04-24T13:39:20;14.20;1.00
4050;DHT22;2039;50.894;6.888;2023-04-24T13:41:46;14.00;3.00
4050;DHT22;2039;50.894;6.888;2023-04-24T13:44:17;14.00;7.50
4050;DHT22;2039;50.894;6.888;2023-04-24T13:46:44;14.00;7.00
4050;DHT22;2039;50.894;6.888;2023-04-24T13:49:11;13.90;3.00
4050;DHT22;2039;50.894;6.888;2023-04-24T13:51:38;13.80;15.50
4050;DHT22;2039;50.894;6.888;2023-04-24T13:54:04;13.60;21.80
4050;DHT22;2039;50.894;6.888;2023-04-24T13:56:29;13.50;13.60
4050;DHT22;2039;50.894;6.888;2023-04-24T13:58:56;13.30;16.10
4050;DHT22;2039;50.894;6.888;2023-04-24T14:01:22;13.30;16.10
4050;DHT22;2039;50.894;6.888;2023-04-24T14:03:55;13.30;16.20
4050;DHT22;2039;50.894;6.888;2023-04-24T14:12:06;13.20;4.60
4050;DHT22;2039;50.894;6.888;2023-04-24T14:14:32;13.20;1.00
4050;DHT22;2039;50.894;6.888;2023-04-24T14:16:58;13.20;1.00
4050;DHT22;2039;50.894;6.888;2023-04-24T14:19:23;13.20;1.00
4050;DHT22;2039;50.894;6.888;2023-04-24T14:21:49;13.20;1.00
4050;DHT22;2039;50.894;6.888;2023-04-24T14:24:15;13.40;1.30
4050;DHT22;2039;50.894;6.888;2023-04-24T14:26:41;13.60;16.70
4050;DHT22;2039;50.894;6.888;2023-04-24T14:29:06;13.70;7.30
4050;DHT22;2039;50.894;6.888;2023-04-24T14:31:32;13.80;1.00
4050;DHT22;2039;50.894;6.888;2023-04-24T14:33:58;13.70;1.00
4050;DHT22;2039;50.894;6.888;2023-04-24T14:36:24;13.70;1.00
4050;DHT22;2039;50.894;6.888;2023-04-24T14:38:49;13.80;1.00
4050;DHT22;2039;50.894;6.888;2023-04-24T14:41:15;13.90;1.00
4050;DHT22;2039;50.894;6.888;2023-04-24T14:43:41;13.80;1.00
4050;DHT22;2039;50.894;6.888;2023-04-24T14:46:07;13.90;1.00
4050;DHT22;2039;50.894;6.888;2023-04-24T14:48:32;14.10;1.00
4050;DHT22;2039;50.894;6.888;2023-04-24T14:50:58;14.30;1.00
4050;DHT22;2039;50.894;6.888;2023-04-24T14:53:24;14.50;1.00
4050;DHT22;2039;50.894;6.888;2023-04-24T14:55:50;14.30;1.00
4050;DHT22;2039;50.894;6.888;2023-04-24T14:58:15;14.20;1.00
4050;DHT22;2039;50.894;6.888;2023-04-24T15:00:41;14.40;1.00
4050;DHT22;2039;50.894;6.888;2023-04-24T15:03:07;14.60;1.00
4050;DHT22;2039;50.894;6.888;2023-04-24T15:05:33;14.60;1.00
4050;DHT22;2039;50.894;6.888;2023-04-24T15:07:59;14.50;1.00
4050;DHT22;2039;50.894;6.888;2023-04-24T15:10:25;14.30;1.00
4050;DHT22;2039;50.894;6.888;2023-04-24T15:12:51;14.10;1.00
4050;DHT22;2039;50.894;6.888;2023-04-24T15:15:17;14.10;1.00
4050;DHT22;2039;50.894;6.888;2023-04-24T15:17:42;14.00;1.00
4050;DHT22;2039;50.894;6.888;2023-04-24T15:20:08;14.00;1.00
4050;DHT22;2039;50.894;6.888;2023-04-24T15:22:35;14.10;1.00
4050;DHT22;2039;50.894;6.888;2023-04-24T15:25:00;14.30;1.00
4050;DHT22;2039;50.894;6.888;2023-04-24T15:27:26;14.20;1.00
4050;DHT22;2039;50.894;6.888;2023-04-24T15:29:52;13.90;1.00
4050;DHT22;2039;50.894;6.888;2023-04-24T15:32:21;13.70;1.00
4050;DHT22;2039;50.894;6.888;2023-04-24T15:34:47;13.80;1.00
4050;DHT22;2039;50.894;6.888;2023-04-24T15:37:12;14.00;1.00
4050;DHT22;2039;50.894;6.888;2023-04-24T15:39:40;14.40;1.00
4050;DHT22;2039;50.894;6.888;2023-04-24T15:42:06;14.50;1.00
4050;DHT22;2039;50.894;6.888;2023-04-24T15:44:31;14.70;1.00
4050;DHT22;2039;50.894;6.888;2023-04-24T15:47:00;14.90;1.00
4050;DHT22;2039;50.894;6.888;2023-04-24T15:49:26;15.10;1.00
4050;DHT22;2039;50.894;6.888;2023-04-24T15:51:51;15.40;1.00
4050;DHT22;2039;50.894;6.888;2023-04-24T15:54:17;15.40;1.00
4050;DHT22;2039;50.894;6.888;2023-04-24T15:56:43;15.40;1.00
4050;DHT22;2039;50.894;6.888;2023-04-24T15:59:09;15.10;1.00
4050;DHT22;2039;50.894;6.888;2023-04-24T16:01:35;14.80;1.00
4050;DHT22;2039;50.894;6.888;2023-04-24T16:04:01;14.60;1.00
4050;DHT22;2039;50.894;6.888;2023-04-24T16:06:27;14.40;1.00
4050;DHT22;2039;50.894;6.888;2023-04-24T16:08:52;14.20;1.00
4050;DHT22;2039;50.894;6.888;2023-04-24T16:11:18;14.10;1.00
4050;DHT22;2039;50.894;6.888;2023-04-24T16:13:44;14.00;1.00
4050;DHT22;2039;50.894;6.888;2023-04-24T16:16:10;13.70;1.00
4050;DHT22;2039;50.894;6.888;2023-04-24T16:18:35;13.50;1.00
4050;DHT22;2039;50.894;6.888;2023-04-24T16:21:04;13.30;1.00
4050;DHT22;2039;50.894;6.888;2023-04-24T16:23:32;13.20;1.00
4050;DHT22;2039;50.894;6.888;2023-04-24T16:25:57;13.10;1.00
4050;DHT22;2039;50.894;6.888;2023-04-24T16:28:23;13.10;1.00
4050;DHT22;2039;50.894;6.888;2023-04-24T16:30:48;13.20;1.00
4050;DHT22;2039;50.894;6.888;2023-04-24T16:33:14;13.30;1.00
4050;DHT22;2039;50.894;6.888;2023-04-24T16:35:40;13.30;1.00
4050;DHT22;2039;50.894;6.888;2023-04-24T16:38:10;13.30;1.00
4050;DHT22;2039;50.894;6.888;2023-04-24T16:40:36;13.30;1.00
4050;DHT22;2039;50.894;6.888;2023-04-24T16:43:02;13.50;1.00
4050;DHT22;2039;50.894;6.888;2023-04-24T16:45:28;13.60;1.00
4050;DHT22;2039;50.894;6.888;2023-04-24T16:47:54;13.60;1.00
4050;DHT22;2039;50.894;6.888;2023-04-24T16:50:20;13.60;1.00
4050;DHT22;2039;50.894;6.888;2023-04-24T16:52:46;13.60;1.00
4050;DHT22;2039;50.894;6.888;2023-04-24T16:55:11;13.60;1.00
4050;DHT22;2039;50.894;6.888;2023-04-24T16:57:37;13.60;1.00
4050;DHT22;2039;50.894;6.888;2023-04-24T17:00:04;13.50;1.00
4050;DHT22;2039;50.894;6.888;2023-04-24T17:02:32;13.40;1.00
4050;DHT22;2039;50.894;6.888;2023-04-24T17:04:58;13.20;1.00
4050;DHT22;2039;50.894;6.888;2023-04-24T17:07:24;13.20;1.00
4050;DHT22;2039;50.894;6.888;2023-04-24T17:09:53;13.30;1.00
4050;DHT22;2039;50.894;6.888;2023-04-24T17:12:19;13.20;1.00
4050;DHT22;2039;50.894;6.888;2023-04-24T17:14:44;13.20;1.00
4050;DHT22;2039;50.894;6.888;2023-04-24T17:17:10;13.20;1.00
4050;DHT22;2039;50.894;6.888;2023-04-24T17:19:36;13.20;1.00
4050;DHT22;2039;50.894;6.888;2023-04-24T17:22:05;13.10;1.00
4050;DHT22;2039;50.894;6.888;2023-04-24T17:24:33;12.90;1.00
4050;DHT22;2039;50.894;6.888;2023-04-24T17:26:59;12.90;1.00
4050;DHT22;2039;50.894;6.888;2023-04-24T17:29:25;12.90;1.00
4050;DHT22;2039;50.894;6.888;2023-04-24T17:31:50;12.80;1.00
4050;DHT22;2039;50.894;6.888;2023-04-24T17:34:16;12.70;1.00
4050;DHT22;2039;50.894;6.888;2023-04-24T17:36:42;12.70;1.00
4050;DHT22;2039;50.894;6.888;2023-04-24T17:39:08;12.60;1.00
4050;DHT22;2039;50.894;6.888;2023-04-24T17:41:34;12.60;1.00
4050;DHT22;2039;50.894;6.888;2023-04-24T17:44:00;12.70;1.00
4050;DHT22;2039;50.894;6.888;2023-04-24T17:46:25;12.70;1.00
4050;DHT22;2039;50.894;6.888;2023-04-24T17:48:51;12.60;1.00
4050;DHT22;2039;50.894;6.888;2023-04-24T17:51:17;12.60;1.00
4050;DHT22;2039;50.894;6.888;2023-04-24T17:53:42;12.50;1.00
4050;DHT22;2039;50.894;6.888;2023-04-24T17:56:09;12.30;7.00
4050;DHT22;2039;50.894;6.888;2023-04-24T17:58:34;12.30;1.00
4050;DHT22;2039;50.894;6.888;2023-04-24T18:01:01;12.30;1.00
4050;DHT22;2039;50.894;6.888;2023-04-24T18:03:26;12.40;2.90
4050;DHT22;2039;50.894;6.888;2023-04-24T18:05:52;12.40;1.00
4050;DHT22;2039;50.894;6.888;2023-04-24T18:08:18;12.40;1.00
4050;DHT22;2039;50.894;6.888;2023-04-24T18:10:44;12.40;1.00
4050;DHT22;2039;50.894;6.888;2023-04-24T18:13:10;12.30;1.00
4050;DHT22;2039;50.894;6.888;2023-04-24T18:15:36;12.30;1.00
4050;DHT22;2039;50.894;6.888;2023-04-24T18:18:01;12.30;1.00
4050;DHT22;2039;50.894;6.888;2023-04-24T18:20:27;12.10;1.00
4050;DHT22;2039;50.894;6.888;2023-04-24T18:22:53;12.10;1.00
4050;DHT22;2039;50.894;6.888;2023-04-24T18:25:22;11.90;1.10
4050;DHT22;2039;50.894;6.888;2023-04-24T18:27:51;11.80;5.90
4050;DHT22;2039;50.894;6.888;2023-04-24T18:30:18;11.60;9.70
4050;DHT22;2039;50.894;6.888;2023-04-24T18:32:49;11.50;13.70
4050;DHT22;2039;50.894;6.888;2023-04-24T18:35:15;11.40;18.50
4050;DHT22;2039;50.894;6.888;2023-04-24T18:37:41;11.30;21.50
4050;DHT22;2039;50.894;6.888;2023-04-24T18:40:09;11.30;26.50
4050;DHT22;2039;50.894;6.888;2023-04-24T18:42:35;11.30;31.20
4050;DHT22;2039;50.894;6.888;2023-04-24T18:45:04;11.20;35.60
4050;DHT22;2039;50.894;6.888;2023-04-24T18:47:29;11.20;40.60
4050;DHT22;2039;50.894;6.888;2023-04-24T18:49:55;11.10;42.60